Hovedside
METAR-TAF:

METAR-TAF

Lufthavner :

Magdalena, Bolivia

breddegrad: 13-20S, lengdegrad: 064-07W, høyde over havet: 140 m

Gjeldene værobservasjon

Denne rapporten ble laget for 9 timer og 15 minutter siden, klokken 20:00 UTC
Vind 4 kt fra Vest
Temperatur 28°C
Luftfuktighet 84%
Trykk 1005 hPa
Sikt 10 km eller mer
Spredte skyer i en høyde av 1500 ft
Brutte skyer i en høyde av 20000 ft

METAR: SLMG 282000Z 27004KT 9999 SCT015 BKN200 28/25 Q1005

Tid: 01:15 (05:15 UTC)


TAF: fraværende

Værobservasjoner og værvarsel for over 4000 flyplasser (METAR- og TAF-rapporter).

Tilgjengelige stasjoner er representert av de røde og gule prikkene på kartet.

Hold musepekeren over prikken for å se navnet på stasjonen.

Klikk så for å se værobservasjoner og -varsler.

For å forandre kartet kan du klikke på den grønne knappen med svart kryss for å zoome inn, på den grønne knappen med strek for å zoome ut, eller på de grønne pilene for å se tilstøtende kart.


METAR-TAF: